createdAt,value
2019-05-11T00:01:57.003Z,98.90
2019-05-11T00:04:25.662Z,98.96
2019-05-11T00:06:54.316Z,99.01
2019-05-11T00:09:23.074Z,99.16
2019-05-11T00:11:51.732Z,98.86
2019-05-11T00:14:20.411Z,98.56
2019-05-11T00:16:49.072Z,98.37
2019-05-11T00:19:17.763Z,98.41
2019-05-11T00:21:46.416Z,98.55
2019-05-11T00:24:15.082Z,98.63
2019-05-11T00:26:43.761Z,98.60
2019-05-11T00:29:12.426Z,98.61
2019-05-11T00:31:41.121Z,98.67
2019-05-11T00:34:09.817Z,98.68
2019-05-11T00:36:38.493Z,98.80
2019-05-11T00:39:08.256Z,98.82
2019-05-11T00:41:37.008Z,98.81
2019-05-11T00:44:05.747Z,98.93
2019-05-11T00:46:34.413Z,98.76
2019-05-11T00:49:03.178Z,98.41
2019-05-11T00:51:31.907Z,98.60
2019-05-11T00:54:00.572Z,99.06
2019-05-11T00:56:29.283Z,99.13
2019-05-11T00:58:57.953Z,99.12
2019-05-11T01:01:26.607Z,99.36
2019-05-11T01:07:24.386Z,99.66
2019-05-11T01:09:53.079Z,99.55
2019-05-11T01:12:21.747Z,99.46
2019-05-11T01:18:18.291Z,100.00
2019-05-11T01:20:46.945Z,100.00
2019-05-11T01:23:15.646Z,100.00
2019-05-11T01:25:44.358Z,99.89
2019-05-11T01:28:13.039Z,99.87
2019-05-11T01:30:42.092Z,100.00
2019-05-11T01:33:10.791Z,99.97
2019-05-11T01:35:39.483Z,99.85
2019-05-11T01:38:08.167Z,99.71
2019-05-11T01:40:36.820Z,99.53
2019-05-11T01:43:05.534Z,99.81
2019-05-11T01:45:34.239Z,99.99
2019-05-11T01:48:02.909Z,100.00
2019-05-11T01:50:31.671Z,100.00
2019-05-11T01:53:00.338Z,100.00
2019-05-11T01:55:29.035Z,100.00
2019-05-11T01:57:57.731Z,100.00
2019-05-11T02:00:26.393Z,100.00
2019-05-11T02:02:55.085Z,99.89
2019-05-11T02:05:30.603Z,99.78
2019-05-11T02:08:00.590Z,99.79
2019-05-11T02:10:30.127Z,99.87
2019-05-11T02:12:58.931Z,99.82
2019-05-11T02:15:27.704Z,100.00
2019-05-11T02:17:56.365Z,100.00
2019-05-11T02:20:25.060Z,100.00
2019-05-11T02:22:53.724Z,100.00
2019-05-11T02:25:22.479Z,100.00
2019-05-11T02:27:51.170Z,99.92
2019-05-11T02:30:20.203Z,99.78
2019-05-11T02:32:49.018Z,99.72
2019-05-11T02:35:17.725Z,99.70
2019-05-11T02:37:46.387Z,99.68
2019-05-11T02:40:15.450Z,99.52
2019-05-11T02:42:44.111Z,99.82
2019-05-11T02:45:13.136Z,100.00
2019-05-11T02:47:41.907Z,100.00
2019-05-11T02:50:10.854Z,100.00
2019-05-11T02:52:39.669Z,100.00
2019-05-11T02:55:08.531Z,100.00
2019-05-11T02:57:37.212Z,100.00
2019-05-11T03:00:08.046Z,100.00
2019-05-11T03:02:36.743Z,100.00
2019-05-11T03:05:06.860Z,100.00
2019-05-11T03:07:35.541Z,99.85
2019-05-11T03:10:04.431Z,99.72
2019-05-11T03:12:33.100Z,99.56
2019-05-11T03:15:01.803Z,99.69
2019-05-11T03:17:33.363Z,99.83
2019-05-11T03:20:02.085Z,99.90
2019-05-11T03:22:30.716Z,99.80
2019-05-11T03:24:59.417Z,99.89
2019-05-11T03:27:28.107Z,100.00
2019-05-11T03:30:00.769Z,100.00
2019-05-11T03:32:27.228Z,100.00
2019-05-11T03:34:56.910Z,100.00
2019-05-11T03:37:25.597Z,99.87
2019-05-11T03:39:54.298Z,99.12
2019-05-11T03:42:22.974Z,98.76
2019-05-11T03:44:51.639Z,98.86
2019-05-11T03:47:20.411Z,99.67
2019-05-11T03:49:49.182Z,99.84
2019-05-11T03:52:18.169Z,99.92
2019-05-11T03:54:46.868Z,99.94
2019-05-11T03:57:15.554Z,99.99
2019-05-11T03:59:44.239Z,99.87
2019-05-11T04:02:12.935Z,99.76
2019-05-11T04:04:41.706Z,100.00
2019-05-11T04:07:10.453Z,100.00
2019-05-11T04:09:39.140Z,100.00
2019-05-11T04:12:07.833Z,100.00
2019-05-11T04:14:36.484Z,100.00
2019-05-11T04:17:05.157Z,100.00
2019-05-11T04:19:33.840Z,99.80
2019-05-11T04:22:02.524Z,99.35
2019-05-11T04:24:31.186Z,99.04
2019-05-11T04:26:59.880Z,98.84
2019-05-11T04:29:28.592Z,99.12
2019-05-11T04:31:57.258Z,98.93
2019-05-11T04:34:25.932Z,98.71
2019-05-11T04:36:54.598Z,98.39
2019-05-11T04:39:23.397Z,98.46
2019-05-11T04:41:52.061Z,98.56
2019-05-11T04:44:20.729Z,98.11
2019-05-11T04:46:49.412Z,96.88
2019-05-11T04:49:18.078Z,96.38
2019-05-11T04:51:46.766Z,96.21
2019-05-11T04:54:15.462Z,96.78
2019-05-11T04:56:44.157Z,95.65
2019-05-11T04:59:12.861Z,94.86
2019-05-11T05:01:41.520Z,93.94
2019-05-11T05:04:14.387Z,93.35
2019-05-11T05:06:40.636Z,93.06
2019-05-11T05:09:09.292Z,92.42
2019-05-11T05:11:38.490Z,92.09
2019-05-11T05:14:10.157Z,93.04
2019-05-11T05:16:37.671Z,92.36
2019-05-11T05:19:06.402Z,90.85
2019-05-11T05:21:35.085Z,90.53
2019-05-11T05:24:03.816Z,89.77
2019-05-11T05:26:32.494Z,89.44
2019-05-11T05:29:01.205Z,88.76
2019-05-11T05:31:29.874Z,88.48
2019-05-11T05:34:01.323Z,86.59
2019-05-11T05:36:29.000Z,86.50
2019-05-11T05:38:57.663Z,86.44
2019-05-11T05:41:26.349Z,86.61
2019-05-11T05:43:55.008Z,87.20
2019-05-11T05:46:23.696Z,87.11
2019-05-11T05:48:52.390Z,85.93
2019-05-11T05:51:21.047Z,83.78
2019-05-11T05:53:49.735Z,80.28
2019-05-11T05:56:18.423Z,79.08
2019-05-11T05:58:47.109Z,78.59
2019-05-11T06:01:15.789Z,79.17
2019-05-11T06:03:44.486Z,77.79
2019-05-11T06:06:13.161Z,77.05
2019-05-11T06:08:43.270Z,76.15
2019-05-11T06:11:12.081Z,77.08
2019-05-11T06:13:45.215Z,77.05
2019-05-11T06:16:11.164Z,75.21
2019-05-11T06:18:39.828Z,75.91
2019-05-11T06:21:08.553Z,76.86
2019-05-11T06:23:37.171Z,77.82
2019-05-11T06:26:05.833Z,78.69
2019-05-11T06:28:34.519Z,77.80
2019-05-11T06:31:03.568Z,77.88
2019-05-11T06:33:32.322Z,77.38
2019-05-11T06:36:00.979Z,77.14
2019-05-11T06:38:29.660Z,77.21
2019-05-11T06:40:58.392Z,76.42
2019-05-11T06:43:27.085Z,77.09
2019-05-11T06:45:55.757Z,78.79
2019-05-11T06:48:24.458Z,77.31
2019-05-11T06:50:53.105Z,75.20
2019-05-11T06:53:21.772Z,74.25
2019-05-11T06:55:50.478Z,73.41
2019-05-11T06:58:19.184Z,71.89
2019-05-11T07:00:47.922Z,71.82
2019-05-11T07:03:16.663Z,68.72
2019-05-11T07:05:45.293Z,69.25
2019-05-11T07:08:13.968Z,68.99
2019-05-11T07:10:42.669Z,69.11
2019-05-11T07:13:11.380Z,68.66
2019-05-11T07:15:40.348Z,68.78
2019-05-11T07:18:09.015Z,67.96
2019-05-11T07:20:50.108Z,68.26
2019-05-11T07:23:08.102Z,67.54
2019-05-11T07:25:36.786Z,68.49
2019-05-11T07:28:05.485Z,67.30
2019-05-11T07:30:34.242Z,66.91
2019-05-11T07:33:02.924Z,68.24
2019-05-11T07:35:31.657Z,69.33
2019-05-11T07:38:00.623Z,69.16
2019-05-11T07:40:29.292Z,68.14
2019-05-11T07:42:58.934Z,68.73
2019-05-11T07:45:28.427Z,69.60
2019-05-11T07:47:58.994Z,72.14
2019-05-11T07:50:28.505Z,74.60
2019-05-11T07:52:58.852Z,73.77
2019-05-11T07:55:28.307Z,73.91
2019-05-11T07:57:58.621Z,73.61
2019-05-11T08:00:28.172Z,74.59
2019-05-11T08:02:58.508Z,74.52
2019-05-11T08:05:28.387Z,73.78
2019-05-11T08:07:59.561Z,72.98
2019-05-11T08:10:28.365Z,71.57
2019-05-11T08:12:58.841Z,72.05
2019-05-11T08:15:28.389Z,71.43
2019-05-11T08:17:57.977Z,73.67
2019-05-11T08:20:28.063Z,72.72
2019-05-11T08:23:00.582Z,71.93
2019-05-11T08:25:29.257Z,71.84
2019-05-11T08:27:58.846Z,70.43
2019-05-11T08:30:28.003Z,69.90
2019-05-11T08:32:58.224Z,69.52
2019-05-11T08:35:30.873Z,69.79
2019-05-11T08:37:58.465Z,72.37
2019-05-11T08:40:28.850Z,73.33
2019-05-11T08:42:58.413Z,74.70
2019-05-11T08:45:28.022Z,75.18
2019-05-11T08:47:57.998Z,76.40
2019-05-11T08:50:27.976Z,75.68
2019-05-11T08:52:58.075Z,75.67
2019-05-11T08:55:28.947Z,76.61
2019-05-11T08:57:58.566Z,76.63
2019-05-11T09:00:28.410Z,74.59
2019-05-11T09:02:58.274Z,75.15
2019-05-11T09:05:28.076Z,75.25
2019-05-11T09:07:57.780Z,75.94
2019-05-11T09:10:28.141Z,75.95
2019-05-11T09:12:59.037Z,75.20
2019-05-11T09:15:36.402Z,72.99
2019-05-11T09:17:57.946Z,72.83
2019-05-11T09:20:28.550Z,72.28
2019-05-11T09:22:58.890Z,71.13
2019-05-11T09:25:27.868Z,71.17
2019-05-11T09:27:58.730Z,69.54
2019-05-11T09:30:28.781Z,69.33
2019-05-11T09:32:58.100Z,68.85
2019-05-11T09:35:29.198Z,68.61
2019-05-11T09:37:58.744Z,68.42
2019-05-11T09:40:28.371Z,70.20
2019-05-11T09:42:58.526Z,69.61
2019-05-11T09:45:27.860Z,68.11
2019-05-11T09:47:58.217Z,68.73
2019-05-11T09:50:28.377Z,67.87
2019-05-11T09:52:58.079Z,66.20
2019-05-11T09:55:28.261Z,64.63
2019-05-11T09:57:57.981Z,62.46
2019-05-11T10:00:28.306Z,62.04
2019-05-11T10:02:57.755Z,60.17
2019-05-11T10:05:28.614Z,59.40
2019-05-11T10:07:58.906Z,59.35
2019-05-11T10:10:28.932Z,57.72
2019-05-11T10:12:59.037Z,56.91
2019-05-11T10:15:28.122Z,57.89
2019-05-11T10:17:58.815Z,58.06
2019-05-11T10:20:29.367Z,58.05
2019-05-11T10:22:58.364Z,59.09
2019-05-11T10:25:28.669Z,55.76
2019-05-11T10:27:58.060Z,53.36
2019-05-11T10:30:28.033Z,53.67
2019-05-11T10:32:57.882Z,56.46
2019-05-11T10:35:28.857Z,55.07
2019-05-11T10:37:58.311Z,54.75
2019-05-11T10:40:28.105Z,56.99
2019-05-11T10:42:58.994Z,59.27
2019-05-11T10:45:28.509Z,60.08
2019-05-11T10:48:00.825Z,60.89
2019-05-11T10:50:28.777Z,61.95
2019-05-11T10:52:59.044Z,62.25
2019-05-11T10:55:28.100Z,62.37
2019-05-11T10:57:58.067Z,62.23
2019-05-11T11:00:28.319Z,62.00
2019-05-11T11:02:58.129Z,61.90
2019-05-11T11:05:27.921Z,61.89
2019-05-11T11:07:58.811Z,62.41
2019-05-11T11:10:28.659Z,63.29
2019-05-11T11:12:57.889Z,64.19
2019-05-11T11:15:28.860Z,64.32
2019-05-11T11:17:57.985Z,65.28
2019-05-11T11:20:28.051Z,66.08
2019-05-11T11:22:58.285Z,68.54
2019-05-11T11:25:28.353Z,70.83
2019-05-11T11:27:57.954Z,72.55
2019-05-11T11:30:28.553Z,73.79
2019-05-11T11:32:58.775Z,74.50
2019-05-11T11:35:27.967Z,72.92
2019-05-11T11:37:58.457Z,72.99
2019-05-11T11:40:28.193Z,73.18
2019-05-11T11:42:58.114Z,74.72
2019-05-11T11:45:28.766Z,75.30
2019-05-11T11:47:58.122Z,75.25
2019-05-11T11:50:28.325Z,74.80
2019-05-11T11:52:57.854Z,74.40
2019-05-11T11:55:28.810Z,72.36
2019-05-11T11:57:58.880Z,73.21
2019-05-11T12:00:28.815Z,73.05
2019-05-11T12:02:58.110Z,73.05
2019-05-11T12:05:28.304Z,72.42
2019-05-11T12:07:58.015Z,73.61
2019-05-11T12:10:28.697Z,73.68
2019-05-11T12:12:58.081Z,74.40
2019-05-11T12:15:28.224Z,75.16
2019-05-11T12:17:58.794Z,74.52
2019-05-11T12:20:28.674Z,76.41
2019-05-11T12:22:58.101Z,75.99
2019-05-11T12:25:27.932Z,77.58
2019-05-11T12:27:57.758Z,77.12
2019-05-11T12:30:28.514Z,77.28
2019-05-11T12:32:57.743Z,78.64
2019-05-11T12:35:28.404Z,78.55
2019-05-11T12:37:58.793Z,80.22
2019-05-11T12:40:28.372Z,79.04
2019-05-11T12:42:59.071Z,78.57
2019-05-11T12:45:29.547Z,77.44
2019-05-11T12:47:58.730Z,79.67
2019-05-11T12:50:28.595Z,77.39
2019-05-11T12:52:58.796Z,77.86
2019-05-11T12:55:28.597Z,80.14
2019-05-11T12:57:58.090Z,79.82
2019-05-11T13:00:31.044Z,81.12
2019-05-11T13:02:58.870Z,80.48
2019-05-11T13:05:28.527Z,80.44
2019-05-11T13:07:58.716Z,78.23
2019-05-11T13:10:28.258Z,79.21
2019-05-11T13:12:58.128Z,77.05
2019-05-11T13:15:28.200Z,77.13
2019-05-11T13:17:58.091Z,74.98
2019-05-11T13:20:28.627Z,71.07
2019-05-11T13:22:58.759Z,71.85
2019-05-11T13:25:28.236Z,73.86
2019-05-11T13:27:58.128Z,75.20
2019-05-11T13:30:27.792Z,74.50
2019-05-11T13:32:58.065Z,72.76
2019-05-11T13:35:28.592Z,73.63
2019-05-11T13:37:59.128Z,72.27
2019-05-11T13:40:27.876Z,72.01
2019-05-11T13:42:58.178Z,70.56
2019-05-11T13:45:28.217Z,69.26
2019-05-11T13:47:59.212Z,70.57
2019-05-11T13:50:29.532Z,70.08
2019-05-11T13:52:58.418Z,75.02
2019-05-11T13:55:28.457Z,74.49
2019-05-11T13:57:57.842Z,72.08
2019-05-11T14:00:28.732Z,71.82
2019-05-11T14:02:59.234Z,74.41
2019-05-11T14:05:28.533Z,74.81
2019-05-11T14:07:58.688Z,72.97
2019-05-11T14:10:28.202Z,72.16
2019-05-11T14:12:58.094Z,71.64
2019-05-11T14:15:28.014Z,70.73
2019-05-11T14:18:05.669Z,70.91
2019-05-11T14:20:28.958Z,69.22
2019-05-11T14:22:58.444Z,66.13
2019-05-11T14:25:28.079Z,63.15
2019-05-11T14:27:59.381Z,65.54
2019-05-11T14:30:28.000Z,66.06
2019-05-11T14:32:58.109Z,63.41
2019-05-11T14:35:28.070Z,63.28
2019-05-11T14:37:58.727Z,63.29
2019-05-11T14:40:28.096Z,62.89
2019-05-11T14:42:58.068Z,61.68
2019-05-11T14:45:28.889Z,60.98
2019-05-11T14:47:58.277Z,59.58
2019-05-11T14:50:28.194Z,60.79
2019-05-11T14:52:58.094Z,63.11
2019-05-11T14:55:28.896Z,63.76
2019-05-11T14:57:57.730Z,62.16
2019-05-11T15:00:28.765Z,63.20
2019-05-11T15:02:58.457Z,63.50
2019-05-11T15:05:28.315Z,63.49
2019-05-11T15:07:58.202Z,61.84
2019-05-11T15:10:27.761Z,59.74
2019-05-11T15:12:58.878Z,60.45
2019-05-11T15:15:27.965Z,60.39
2019-05-11T15:17:58.092Z,60.04
2019-05-11T15:20:28.602Z,62.77
2019-05-11T15:22:58.177Z,62.42
2019-05-11T15:25:28.843Z,60.01
2019-05-11T15:27:58.423Z,59.66
2019-05-11T15:30:28.771Z,58.38
2019-05-11T15:32:58.453Z,55.88
2019-05-11T15:35:28.438Z,56.66
2019-05-11T15:37:58.240Z,56.18
2019-05-11T15:40:27.940Z,56.77
2019-05-11T15:42:58.610Z,59.56
2019-05-11T15:45:27.827Z,60.65
2019-05-11T15:47:58.728Z,62.56
2019-05-11T15:50:32.674Z,63.00
2019-05-11T15:53:01.326Z,64.72
2019-05-11T15:55:30.009Z,64.72
2019-05-11T15:57:58.891Z,64.82
2019-05-11T16:00:29.422Z,65.27
2019-05-11T16:02:58.130Z,65.57
2019-05-11T16:05:28.520Z,65.65
2019-05-11T16:08:01.414Z,65.62
2019-05-11T16:10:27.976Z,64.77
2019-05-11T16:12:58.636Z,64.32
2019-05-11T16:15:27.727Z,64.30
2019-05-11T16:17:57.810Z,64.46
2019-05-11T16:20:28.551Z,63.57
2019-05-11T16:22:57.358Z,64.60
2019-05-11T16:25:28.062Z,65.16
2019-05-11T16:27:56.876Z,63.01
2019-05-11T16:30:25.534Z,63.14
2019-05-11T16:32:54.218Z,63.31
2019-05-11T16:35:22.889Z,64.68
2019-05-11T16:37:51.554Z,65.04
2019-05-11T16:40:21.126Z,65.55
2019-05-11T16:42:50.129Z,65.76
2019-05-11T16:45:19.452Z,65.91
2019-05-11T16:47:48.554Z,63.74
2019-05-11T16:50:18.179Z,64.18
2019-05-11T16:52:48.236Z,62.67
2019-05-11T16:55:18.264Z,61.85
2019-05-11T16:57:48.514Z,62.05
2019-05-11T17:00:17.754Z,62.51
2019-05-11T17:02:48.662Z,61.65
2019-05-11T17:05:25.813Z,58.93
2019-05-11T17:07:48.362Z,58.28
2019-05-11T17:10:17.938Z,50.78
2019-05-11T17:12:48.293Z,45.05
2019-05-11T17:15:18.607Z,42.26
2019-05-11T17:17:48.707Z,40.58
2019-05-11T17:20:19.217Z,42.29
2019-05-11T17:22:48.400Z,46.68
2019-05-11T17:25:19.273Z,42.86
2019-05-11T17:27:48.732Z,43.92
2019-05-11T17:30:19.513Z,48.09
2019-05-11T17:32:49.265Z,48.17
2019-05-11T17:35:18.715Z,47.60
2019-05-11T17:37:48.453Z,46.50
2019-05-11T17:40:19.449Z,49.02
2019-05-11T17:42:48.400Z,50.07
2019-05-11T17:45:18.946Z,48.80
2019-05-11T17:47:48.191Z,50.46
2019-05-11T17:50:19.119Z,52.22
2019-05-11T17:52:48.068Z,52.85
2019-05-11T17:55:18.389Z,50.52
2019-05-11T17:57:49.664Z,46.81
2019-05-11T18:00:20.084Z,44.32
2019-05-11T18:02:49.000Z,43.44
2019-05-11T18:05:18.271Z,42.90
2019-05-11T18:07:46.953Z,42.02
2019-05-11T18:10:17.992Z,42.30
2019-05-11T18:12:48.340Z,41.57
2019-05-11T18:15:18.594Z,43.38
2019-05-11T18:17:48.419Z,46.40
2019-05-11T18:20:21.753Z,45.24
2019-05-11T18:22:49.467Z,43.72
2019-05-11T18:25:18.649Z,44.41
2019-05-11T18:27:48.309Z,44.90
2019-05-11T18:30:18.162Z,45.43
2019-05-11T18:32:49.071Z,46.10
2019-05-11T18:35:19.452Z,49.55
2019-05-11T18:37:48.129Z,50.62
2019-05-11T18:40:20.698Z,52.05
2019-05-11T18:42:50.830Z,53.18
2019-05-11T18:45:19.622Z,54.33
2019-05-11T18:47:48.959Z,55.22
2019-05-11T18:50:29.456Z,57.15
2019-05-11T18:52:49.056Z,58.96
2019-05-11T18:55:18.944Z,60.33
2019-05-11T18:57:48.991Z,60.39
2019-05-11T19:00:19.130Z,61.02
2019-05-11T19:02:49.503Z,61.86
2019-05-11T19:05:18.333Z,62.58
2019-05-11T19:07:48.210Z,63.39
2019-05-11T19:10:17.438Z,64.08
2019-05-11T19:12:48.434Z,64.62
2019-05-11T19:15:18.832Z,65.44
2019-05-11T19:17:48.999Z,66.49
2019-05-11T19:20:18.048Z,66.35
2019-05-11T19:22:46.855Z,67.23
2019-05-11T19:25:18.229Z,67.59
2019-05-11T19:27:50.233Z,68.16
2019-05-11T19:30:18.705Z,68.79
2019-05-11T19:32:48.740Z,69.27
2019-05-11T19:35:20.879Z,68.94
2019-05-11T19:37:48.700Z,68.88
2019-05-11T19:40:17.552Z,68.70
2019-05-11T19:42:54.375Z,69.50
2019-05-11T19:45:23.906Z,69.11
2019-05-11T19:47:52.675Z,68.31
2019-05-11T19:50:21.528Z,69.26
2019-05-11T19:52:50.194Z,70.25
2019-05-11T19:55:19.241Z,70.24
2019-05-11T19:57:48.409Z,70.25
2019-05-11T20:00:18.410Z,70.30
2019-05-11T20:02:47.471Z,70.70
2019-05-11T20:05:18.488Z,71.75
2019-05-11T20:07:48.616Z,72.60
2019-05-11T20:10:19.369Z,72.21
2019-05-11T20:12:48.569Z,72.81
2019-05-11T20:15:18.757Z,72.36
2019-05-11T20:17:48.734Z,73.51
2019-05-11T20:20:18.645Z,73.09
2019-05-11T20:22:48.531Z,73.17
2019-05-11T20:25:19.336Z,74.03
2019-05-11T20:27:48.858Z,72.90
2019-05-11T20:30:19.540Z,73.37
2019-05-11T20:32:49.945Z,72.83
2019-05-11T20:35:18.708Z,73.66
2019-05-11T20:37:47.416Z,73.41
2019-05-11T20:40:18.342Z,73.90
2019-05-11T20:42:48.479Z,73.01
2019-05-11T20:45:18.532Z,73.35
2019-05-11T20:47:48.727Z,73.58
2019-05-11T20:50:18.531Z,74.06
2019-05-11T20:52:48.090Z,73.55
2019-05-11T20:55:18.155Z,73.78
2019-05-11T20:57:48.234Z,74.16
2019-05-11T21:00:19.755Z,74.77
2019-05-11T21:02:49.020Z,75.84
2019-05-11T21:05:18.386Z,76.56
2019-05-11T21:07:49.586Z,75.89
2019-05-11T21:10:18.330Z,75.46
2019-05-11T21:12:46.995Z,74.75
2019-05-11T21:15:16.435Z,75.27
2019-05-11T21:17:45.133Z,75.12
2019-05-11T21:20:14.053Z,75.47
2019-05-11T21:22:42.716Z,75.54
2019-05-11T21:25:11.990Z,76.41
2019-05-11T21:27:40.655Z,76.68
2019-05-11T21:30:10.213Z,76.87
2019-05-11T21:32:38.958Z,77.17
2019-05-11T21:35:08.828Z,77.31
2019-05-11T21:37:39.036Z,76.76
2019-05-11T21:40:09.219Z,77.45
2019-05-11T21:42:39.025Z,77.41
2019-05-11T21:45:09.087Z,77.75
2019-05-11T21:47:38.864Z,78.11
2019-05-11T21:50:08.581Z,77.31
2019-05-11T21:52:38.381Z,77.15
2019-05-11T21:55:09.638Z,77.51
2019-05-11T21:57:38.722Z,76.76
2019-05-11T22:00:09.149Z,77.30
2019-05-11T22:02:38.690Z,77.47
2019-05-11T22:05:08.707Z,77.52
2019-05-11T22:07:38.788Z,78.31
2019-05-11T22:10:08.819Z,78.26
2019-05-11T22:12:39.134Z,78.82
2019-05-11T22:15:09.755Z,78.77
2019-05-11T22:17:39.314Z,78.74
2019-05-11T22:20:10.034Z,79.68
2019-05-11T22:22:39.410Z,79.44
2019-05-11T22:25:08.711Z,79.27
2019-05-11T22:27:38.748Z,79.53
2019-05-11T22:30:08.769Z,80.04
2019-05-11T22:32:38.317Z,80.16
2019-05-11T22:35:08.326Z,80.58
2019-05-11T22:37:38.739Z,80.39
2019-05-11T22:40:09.185Z,80.54
2019-05-11T22:42:39.702Z,80.80
2019-05-11T22:45:09.003Z,80.20
2019-05-11T22:47:39.248Z,80.38
2019-05-11T22:50:08.548Z,81.66
2019-05-11T22:52:40.108Z,81.53
2019-05-11T22:55:12.118Z,81.37
2019-05-11T22:57:39.352Z,81.80
2019-05-11T23:00:08.528Z,81.49
2019-05-11T23:02:37.988Z,81.47
2019-05-11T23:05:08.493Z,82.18
2019-05-11T23:07:41.067Z,83.08
2019-05-11T23:10:08.829Z,83.60
2019-05-11T23:12:38.333Z,83.89
2019-05-11T23:15:18.491Z,85.10
2019-05-11T23:17:47.159Z,85.75
2019-05-11T23:20:16.288Z,85.58
2019-05-11T23:22:56.938Z,85.85
2019-05-11T23:25:18.730Z,85.80
2019-05-11T23:27:48.538Z,85.50
2019-05-11T23:30:20.095Z,85.14
2019-05-11T23:32:49.323Z,85.91
2019-05-11T23:35:19.070Z,86.68
2019-05-11T23:37:49.519Z,86.68
2019-05-11T23:40:19.390Z,86.75
2019-05-11T23:42:49.050Z,86.46
2019-05-11T23:45:19.175Z,86.57
2019-05-11T23:47:48.791Z,86.12
2019-05-11T23:50:19.049Z,85.61
2019-05-11T23:52:48.789Z,84.63
2019-05-11T23:55:19.253Z,84.37
2019-05-11T23:57:48.862Z,84.38
